Time;durP1;ratioP1;P1;durP2;ratioP2;P2;SDS_P1;SDS_P2;PMS_P1;PMS_P2;Temp;Humidity;BMP_temperature;BMP_pressure;BME280_temperature;BME280_humidity;BME280_pressure;Samples;Min_cycle;Max_cycle;Signal;HPM_P1;HPM_P2
2022/03/12 00:00:26;;;;;;;51.40;20.88;;;-6.60;73.60;;;;;;4177676;28;20028;-72
2022/03/12 00:02:32;;;;;;;46.38;18.60;;;-6.60;73.50;;;;;;4178568;28;20041;-72
2022/03/12 00:04:33;;;;;;;64.65;22.02;;;-6.60;73.90;;;;;;4174531;28;20114;-71
2022/03/12 00:06:34;;;;;;;51.13;19.23;;;-6.60;74.70;;;;;;4179145;28;20037;-63
2022/03/12 00:08:43;;;;;;;44.97;17.98;;;-6.60;75.00;;;;;;4177148;28;20043;-55
2022/03/12 00:10:50;;;;;;;43.33;17.52;;;-6.60;73.70;;;;;;4179825;28;20469;-71
2022/03/12 00:12:53;;;;;;;40.70;17.13;;;-6.60;74.70;;;;;;4177758;28;20091;-78
2022/03/12 00:14:54;;;;;;;46.35;16.98;;;-6.60;74.40;;;;;;4178836;28;20373;-63
2022/03/12 00:16:56;;;;;;;44.25;18.15;;;-6.60;75.10;;;;;;4159572;28;20076;-61
2022/03/12 00:19:02;;;;;;;39.85;16.75;;;-6.50;75.00;;;;;;4177551;28;20486;-65
2022/03/12 00:21:08;;;;;;;38.42;16.02;;;-6.60;75.00;;;;;;4161360;28;20029;-75
2022/03/12 00:23:11;;;;;;;36.65;15.68;;;-6.50;74.20;;;;;;4172702;28;20147;-67
2022/03/12 00:25:14;;;;;;;44.85;16.27;;;-6.50;74.10;;;;;;4177456;28;20025;-53
2022/03/12 00:27:16;;;;;;;41.70;17.52;;;-6.50;75.60;;;;;;4178737;28;20025;-54
2022/03/12 00:29:20;;;;;;;35.08;16.10;;;-6.50;74.30;;;;;;4177664;28;20045;-55
2022/03/12 00:31:23;;;;;;;35.58;15.02;;;-6.50;74.30;;;;;;4177825;28;20033;-54
2022/03/12 00:33:24;;;;;;;39.05;17.00;;;-6.50;74.60;;;;;;4175540;28;20032;-63
2022/03/12 00:35:25;;;;;;;37.22;16.60;;;-6.50;74.50;;;;;;4176837;28;20028;-92
2022/03/12 00:37:26;;;;;;;38.88;16.90;;;-6.50;75.90;;;;;;4175143;28;20041;-58
2022/03/12 00:39:27;;;;;;;39.40;16.58;;;-6.60;75.60;;;;;;4175548;28;20037;-77
2022/03/12 00:41:29;;;;;;;43.13;16.42;;;-6.60;75.20;;;;;;4195325;23;20056;-77
2022/03/12 00:43:30;;;;;;;41.70;15.60;;;-6.70;74.90;;;;;;4179390;28;20021;-67
2022/03/12 00:45:31;;;;;;;40.38;16.42;;;-6.80;75.80;;;;;;4176195;28;20033;-52
2022/03/12 00:47:33;;;;;;;46.42;16.98;;;-6.90;75.60;;;;;;4192615;28;20090;-74
2022/03/12 00:49:34;;;;;;;35.58;15.07;;;-6.90;76.80;;;;;;4175306;28;20049;-43
2022/03/12 00:51:38;;;;;;;33.80;14.45;;;-6.90;76.80;;;;;;4176220;28;20500;-54
2022/03/12 00:53:42;;;;;;;35.80;13.93;;;-6.90;76.40;;;;;;4178291;28;20103;-45
2022/03/12 00:55:43;;;;;;;35.20;13.82;;;-6.90;76.20;;;;;;4177819;28;20037;-68
2022/03/12 00:57:44;;;;;;;36.33;14.10;;;-6.90;75.80;;;;;;4179705;28;20061;-68
2022/03/12 00:59:45;;;;;;;34.30;15.10;;;-6.90;75.80;;;;;;4176126;28;20071;-61
2022/03/12 01:01:46;;;;;;;49.50;18.00;;;-6.90;77.10;;;;;;4175033;28;20041;-41
2022/03/12 01:03:47;;;;;;;40.78;17.40;;;-6.90;76.20;;;;;;4176040;28;20421;-74
2022/03/12 01:05:48;;;;;;;36.00;15.85;;;-6.80;76.40;;;;;;4157035;28;20080;-44
2022/03/12 01:07:50;;;;;;;37.72;15.15;;;-6.80;76.10;;;;;;4180429;28;20013;-54
2022/03/12 01:09:52;;;;;;;36.00;15.63;;;-6.80;76.90;;;;;;4190881;28;20102;-45
2022/03/12 01:11:53;;;;;;;36.67;14.85;;;-6.70;77.40;;;;;;4182776;28;20123;-54
2022/03/12 01:13:54;;;;;;;32.60;14.48;;;-6.80;78.20;;;;;;4174591;28;20032;-63
2022/03/12 01:15:56;;;;;;;35.42;15.18;;;-6.70;77.30;;;;;;4176962;28;20091;-60
2022/03/12 01:17:57;;;;;;;32.08;14.13;;;-6.70;78.20;;;;;;4174772;28;20033;-47
2022/03/12 01:20:00;;;;;;;30.15;13.00;;;-6.80;77.40;;;;;;4176715;28;20033;-74
2022/03/12 01:22:03;;;;;;;33.33;14.73;;;-6.70;78.10;;;;;;4191576;28;20028;-55
2022/03/12 01:24:04;;;;;;;33.88;13.73;;;-6.70;77.70;;;;;;4172530;28;20042;-69
2022/03/12 01:26:05;;;;;;;37.60;14.13;;;-6.70;78.30;;;;;;4191375;28;20032;-57
2022/03/12 01:28:09;;;;;;;40.08;14.25;;;-6.70;78.20;;;;;;4192300;28;20032;-74
2022/03/12 01:30:10;;;;;;;33.53;13.90;;;-6.70;76.90;;;;;;4191008;28;20125;-54
2022/03/12 01:32:12;;;;;;;33.85;14.25;;;-6.80;77.10;;;;;;4191824;28;20542;-44
2022/03/12 01:34:13;;;;;;;36.03;14.80;;;-6.70;77.50;;;;;;4191472;28;20949;-76
2022/03/12 01:36:15;;;;;;;38.67;14.98;;;-6.80;77.20;;;;;;4191429;28;20074;-88
2022/03/12 01:38:16;;;;;;;37.10;11.90;;;-6.80;77.90;;;;;;4191571;28;20028;-63
2022/03/12 01:40:17;;;;;;;31.80;13.52;;;-6.70;77.40;;;;;;4174656;28;20107;-71
2022/03/12 01:42:21;;;;;;;29.50;12.13;;;-6.70;77.70;;;;;;4158761;28;20473;-63
2022/03/12 01:44:22;;;;;;;27.17;12.38;;;-6.80;78.70;;;;;;4174581;28;20059;-47
2022/03/12 01:46:32;;;;;;;32.17;14.00;;;-6.80;78.40;;;;;;4174619;28;20086;-70
2022/03/12 01:48:33;;;;;;;35.33;14.30;;;-6.80;79.80;;;;;;4155823;28;20623;-71
2022/03/12 01:50:36;;;;;;;32.47;13.00;;;-7.00;80.50;;;;;;4189019;28;20093;-54
2022/03/12 01:52:37;;;;;;;39.20;13.73;;;-7.20;80.50;;;;;;4189690;28;20040;-54
2022/03/12 01:54:42;;;;;;;30.17;12.95;;;-7.20;80.00;;;;;;4192073;28;20036;-59
2022/03/12 01:56:44;;;;;;;30.77;13.02;;;-7.20;82.20;;;;;;4191207;28;20510;-54
2022/03/12 01:58:47;;;;;;;28.35;11.60;;;-7.20;83.40;;;;;;4192047;28;20036;-44
2022/03/12 02:00:50;;;;;;;33.47;13.18;;;-7.20;80.90;;;;;;4190361;28;20028;-58
2022/03/12 02:02:54;;;;;;;29.70;12.05;;;-7.20;81.60;;;;;;4191598;28;20032;-81
2022/03/12 02:04:55;;;;;;;31.55;12.35;;;-7.20;82.10;;;;;;4189988;28;20016;-72
2022/03/12 02:07:00;;;;;;;28.88;13.05;;;-7.10;82.70;;;;;;4193163;28;20082;-77
2022/03/12 02:09:03;;;;;;;32.25;13.43;;;-7.20;82.10;;;;;;4174410;28;20402;-57
2022/03/12 02:11:07;;;;;;;31.92;12.27;;;-7.20;82.50;;;;;;4181982;28;20425;-65
2022/03/12 02:13:08;;;;;;;30.30;12.73;;;-7.20;83.80;;;;;;4176116;28;20071;-49
2022/03/12 02:15:09;;;;;;;39.75;13.38;;;-7.30;82.50;;;;;;4176936;28;20074;-51
2022/03/12 02:17:11;;;;;;;36.08;13.27;;;-7.40;82.30;;;;;;4176291;28;20045;-54
2022/03/12 02:19:12;;;;;;;39.40;15.60;;;-7.40;82.00;;;;;;4176809;28;20033;-60
2022/03/12 02:21:14;;;;;;;37.13;13.90;;;-7.50;83.70;;;;;;4177029;28;20074;-71
2022/03/12 02:23:15;;;;;;;44.65;16.15;;;-7.50;84.30;;;;;;4175615;28;20037;-79
2022/03/12 02:25:16;;;;;;;32.85;13.70;;;-7.60;84.10;;;;;;4176760;28;20033;-65
2022/03/12 02:27:17;;;;;;;39.75;14.27;;;-7.60;84.30;;;;;;4175149;28;20021;-67
2022/03/12 02:29:21;;;;;;;34.13;12.80;;;-7.60;84.70;;;;;;4180892;28;21032;-81
2022/03/12 02:31:25;;;;;;;32.70;12.93;;;-7.60;84.30;;;;;;4191884;28;20029;-65
2022/03/12 02:33:29;;;;;;;30.85;12.70;;;-7.60;83.70;;;;;;4193105;28;20937;-60
2022/03/12 02:35:37;;;;;;;34.75;14.55;;;-7.60;85.00;;;;;;4190346;28;20044;-55
2022/03/12 02:37:42;;;;;;;36.97;13.88;;;-7.60;85.30;;;;;;4160317;28;20033;-77
2022/03/12 02:39:43;;;;;;;31.65;13.55;;;-7.70;84.70;;;;;;4169456;28;20075;-74
2022/03/12 02:41:44;;;;;;;32.10;13.57;;;-7.70;84.20;;;;;;4175888;28;20029;-52
2022/03/12 02:43:46;;;;;;;32.15;13.32;;;-7.80;84.90;;;;;;4174934;28;20452;-56
2022/03/12 02:45:51;;;;;;;43.95;13.48;;;-7.80;87.10;;;;;;4191388;28;20016;-45
2022/03/12 02:47:54;;;;;;;33.03;13.18;;;-7.80;86.80;;;;;;4192077;28;20033;-60
2022/03/12 02:50:06;;;;;;;30.88;12.55;;;-7.80;88.30;;;;;;4191510;28;20037;-73
2022/03/12 02:52:07;;;;;;;28.40;12.63;;;-7.80;88.00;;;;;;4191262;28;20040;-88
2022/03/12 02:54:08;;;;;;;34.17;12.57;;;-7.80;86.50;;;;;;4191319;28;20486;-52
2022/03/12 02:56:11;;;;;;;32.70;12.90;;;-7.80;86.20;;;;;;4190623;28;20085;-65
2022/03/12 02:58:16;;;;;;;31.42;11.50;;;-7.90;87.00;;;;;;4190159;28;20074;-61
2022/03/12 03:00:19;;;;;;;31.33;12.13;;;-7.90;86.10;;;;;;4179185;28;20040;-55
2022/03/12 03:02:31;;;;;;;30.17;12.32;;;-7.90;86.00;;;;;;4173069;28;20043;-60
2022/03/12 03:04:36;;;;;;;33.67;12.40;;;-7.90;86.80;;;;;;4174175;28;20036;-69
2022/03/12 03:06:38;;;;;;;28.02;11.82;;;-7.90;87.10;;;;;;4174636;28;20040;-56
2022/03/12 03:08:39;;;;;;;30.42;12.00;;;-7.90;87.40;;;;;;4177176;28;20028;-76
2022/03/12 03:11:16;;;;;;;26.15;11.85;;;-8.00;88.00;;;;;;4176841;28;20029;-72
2022/03/12 03:13:18;;;;;;;27.25;11.32;;;-8.00;88.40;;;;;;4176144;28;20078;-45
2022/03/12 03:15:19;;;;;;;33.70;12.57;;;-8.00;88.70;;;;;;4175419;28;20064;-53
2022/03/12 03:17:20;;;;;;;33.65;12.70;;;-8.10;88.30;;;;;;4176272;28;20029;-50
2022/03/12 03:19:25;;;;;;;26.13;11.80;;;-8.10;88.70;;;;;;4176674;28;20481;-61
2022/03/12 03:21:27;;;;;;;36.08;14.82;;;-8.10;89.20;;;;;;4176645;28;20037;-64
2022/03/12 03:23:30;;;;;;;37.80;13.30;;;-8.20;90.40;;;;;;4184800;28;20032;-61
2022/03/12 03:25:31;;;;;;;27.42;12.75;;;-8.20;89.70;;;;;;4195365;28;20033;-47
2022/03/12 03:27:32;;;;;;;37.25;14.07;;;-8.20;90.00;;;;;;4192590;28;20036;-62
2022/03/12 03:29:34;;;;;;;34.60;14.02;;;-8.20;90.50;;;;;;4192525;28;20086;-51
2022/03/12 03:31:36;;;;;;;32.80;13.82;;;-8.20;90.50;;;;;;4190929;28;20025;-63
2022/03/12 03:33:37;;;;;;;44.70;14.98;;;-8.30;89.50;;;;;;4191085;28;20029;-56
2022/03/12 03:35:39;;;;;;;33.08;14.55;;;-8.30;91.00;;;;;;4189575;28;20036;-64
2022/03/12 03:37:40;;;;;;;37.92;15.27;;;-8.30;92.00;;;;;;4187634;28;20044;-49
2022/03/12 03:39:41;;;;;;;34.42;12.93;;;-8.30;91.90;;;;;;4190976;28;20028;-45
2022/03/12 03:41:43;;;;;;;27.92;12.93;;;-8.20;91.20;;;;;;4178262;28;20445;-46
2022/03/12 03:43:47;;;;;;;34.78;14.50;;;-8.20;90.60;;;;;;4170095;28;20044;-43
2022/03/12 03:45:50;;;;;;;28.48;12.43;;;-8.20;91.20;;;;;;4189434;28;20115;-79
2022/03/12 03:47:52;;;;;;;32.90;12.48;;;-8.10;90.80;;;;;;4190490;28;20074;-58
2022/03/12 03:49:53;;;;;;;32.15;13.20;;;-8.10;91.20;;;;;;4187846;28;20049;-69
2022/03/12 03:51:56;;;;;;;30.25;12.10;;;-8.20;91.20;;;;;;4190537;28;20425;-55
2022/03/12 03:53:57;;;;;;;25.33;11.38;;;-8.20;91.40;;;;;;4189153;28;20025;-46
2022/03/12 03:55:59;;;;;;;28.17;11.18;;;-8.20;91.20;;;;;;4190293;28;20086;-86
2022/03/12 03:58:03;;;;;;;30.27;12.48;;;-8.20;92.10;;;;;;4189257;28;20436;-80
2022/03/12 04:00:05;;;;;;;33.75;12.50;;;-8.20;92.90;;;;;;4179636;28;20025;-41
2022/03/12 04:02:06;;;;;;;38.25;12.75;;;-8.20;93.20;;;;;;4154088;28;20063;-58
2022/03/12 04:04:12;;;;;;;45.28;16.52;;;-8.30;92.10;;;;;;4173541;28;20098;-65
2022/03/12 04:06:14;;;;;;;49.83;17.30;;;-8.30;91.70;;;;;;4154689;28;20108;-44
2022/03/12 04:08:15;;;;;;;44.22;16.85;;;-8.30;92.20;;;;;;4156288;28;20041;-47
2022/03/12 04:10:16;;;;;;;43.50;16.25;;;-8.40;92.00;;;;;;4176483;28;20044;-50
2022/03/12 04:12:17;;;;;;;32.85;14.45;;;-8.40;92.40;;;;;;4176807;28;20033;-60
2022/03/12 04:14:18;;;;;;;34.47;12.45;;;-8.50;92.80;;;;;;4182513;28;20032;-67
2022/03/12 04:16:21;;;;;;;30.23;12.45;;;-8.60;92.30;;;;;;4193140;28;20036;-62
2022/03/12 04:18:22;;;;;;;27.60;12.20;;;-8.60;92.30;;;;;;4194679;28;20154;-74
2022/03/12 04:20:23;;;;;;;29.73;12.65;;;-8.70;92.70;;;;;;4194048;28;20869;-44
2022/03/12 04:22:25;;;;;;;30.05;11.52;;;-8.70;92.60;;;;;;4195114;28;20040;-78
2022/03/12 04:24:27;;;;;;;34.58;11.73;;;-8.70;94.20;;;;;;4174164;28;20033;-60
2022/03/12 04:26:28;;;;;;;33.15;11.32;;;-8.70;94.30;;;;;;4195097;28;20020;-76
2022/03/12 04:28:32;;;;;;;28.75;10.98;;;-8.70;94.30;;;;;;4193737;28;20055;-86
2022/03/12 04:30:34;;;;;;;28.75;10.98;;;-8.70;93.90;;;;;;4187744;28;20906;-75
2022/03/12 04:32:35;;;;;;;25.08;11.00;;;-8.60;93.70;;;;;;4160612;28;20041;-67
2022/03/12 04:34:36;;;;;;;30.60;11.60;;;-8.60;93.70;;;;;;4159917;28;20108;-52
2022/03/12 04:36:41;;;;;;;26.30;10.57;;;-8.60;94.00;;;;;;4176566;28;20017;-60
2022/03/12 04:38:42;;;;;;;30.48;11.48;;;-8.60;94.20;;;;;;4177495;28;20096;-69
2022/03/12 04:40:45;;;;;;;30.02;11.05;;;-8.60;94.00;;;;;;4178877;28;20459;-56
2022/03/12 04:42:46;;;;;;;33.40;12.10;;;-8.70;93.80;;;;;;4178549;28;20029;-68
2022/03/12 04:44:48;;;;;;;31.27;12.43;;;-8.70;94.10;;;;;;4180373;28;20078;-63
2022/03/12 04:46:49;;;;;;;30.73;12.65;;;-8.70;93.70;;;;;;4180690;28;20021;-68
2022/03/12 04:48:50;;;;;;;28.63;12.02;;;-8.70;94.40;;;;;;4194831;28;20037;-61
2022/03/12 04:50:53;;;;;;;31.85;12.77;;;-8.70;95.10;;;;;;4193371;28;20184;-70
2022/03/12 04:52:57;;;;;;;35.17;13.32;;;-8.70;95.40;;;;;;4193400;28;20099;-63
2022/03/12 04:54:59;;;;;;;33.72;13.40;;;-8.70;94.50;;;;;;4193822;28;20036;-58
2022/03/12 04:57:00;;;;;;;36.80;11.48;;;-8.70;94.20;;;;;;4175578;28;20037;-63
2022/03/12 04:59:02;;;;;;;34.58;13.35;;;-8.60;93.90;;;;;;4193503;28;20101;-64
2022/03/12 05:01:03;;;;;;;32.95;12.98;;;-8.60;94.80;;;;;;4193073;28;20036;-59
2022/03/12 05:03:10;;;;;;;32.53;12.85;;;-8.40;94.40;;;;;;4193165;28;20032;-58
2022/03/12 05:05:13;;;;;;;34.63;12.43;;;-8.10;93.80;;;;;;4194743;28;20021;-73
2022/03/12 05:07:14;;;;;;;35.08;13.15;;;-7.70;94.00;;;;;;4193146;28;20087;-65
2022/03/12 05:09:15;;;;;;;31.15;14.30;;;-7.30;93.70;;;;;;4194336;28;20082;-44
2022/03/12 05:11:17;;;;;;;34.20;12.65;;;-7.00;93.60;;;;;;4193658;28;20041;-61
2022/03/12 05:13:27;;;;;;;32.60;13.55;;;-6.70;92.70;;;;;;4195229;28;20067;-69
2022/03/12 05:15:36;;;;;;;29.98;12.63;;;-6.30;92.10;;;;;;4187982;28;20087;-58
2022/03/12 05:17:48;;;;;;;32.70;12.63;;;-5.80;91.70;;;;;;4179870;28;20107;-52
2022/03/12 05:19:50;;;;;;;25.98;12.60;;;-5.40;91.00;;;;;;4176635;28;20063;-68
2022/03/12 05:21:51;;;;;;;29.98;14.07;;;-4.90;90.30;;;;;;4176609;28;20025;-44
2022/03/12 05:23:52;;;;;;;34.03;13.00;;;-4.50;89.60;;;;;;4177338;28;20110;-64
2022/03/12 05:25:53;;;;;;;34.35;13.13;;;-4.10;88.70;;;;;;4176747;28;20043;-64
2022/03/12 05:27:55;;;;;;;33.63;13.85;;;-3.70;87.40;;;;;;4181254;28;20095;-57
2022/03/12 05:29:56;;;;;;;30.40;12.32;;;-3.40;86.70;;;;;;4176657;28;20033;-75
2022/03/12 05:31:57;;;;;;;38.72;15.63;;;-3.20;85.40;;;;;;4177452;28;20448;-68
2022/03/12 05:33:58;;;;;;;64.88;27.27;;;-3.00;85.00;;;;;;4177598;28;20098;-51
2022/03/12 05:35:59;;;;;;;44.47;19.33;;;-2.70;84.60;;;;;;4177547;28;20063;-59
2022/03/12 05:38:01;;;;;;;51.88;22.98;;;-2.50;83.80;;;;;;4177254;28;20103;-93
2022/03/12 05:40:04;;;;;;;39.67;19.15;;;-2.20;83.10;;;;;;4180719;28;20049;-80
2022/03/12 05:42:06;;;;;;;33.33;17.13;;;-1.90;82.70;;;;;;4175127;28;20021;-63
2022/03/12 05:44:07;;;;;;;32.87;15.23;;;-1.60;81.90;;;;;;4175642;28;20032;-73
2022/03/12 05:46:17;;;;;;;29.47;12.37;;;-1.10;81.50;;;;;;4175781;28;20335;-73
2022/03/12 05:48:19;;;;;;;33.50;13.57;;;-0.50;79.90;;;;;;4174766;28;20277;-56
2022/03/12 05:50:21;;;;;;;31.87;14.97;;;-0.20;78.60;;;;;;4181743;28;20301;-57
2022/03/12 05:52:23;;;;;;;34.23;14.80;;;0.20;78.40;;;;;;4193267;28;20277;-86
2022/03/12 05:54:25;;;;;;;34.13;15.23;;;0.50;76.80;;;;;;4199747;28;20315;-80
2022/03/12 05:56:27;;;;;;;34.53;14.27;;;0.70;76.10;;;;;;4197060;28;20254;-74
2022/03/12 05:58:28;;;;;;;26.97;13.83;;;0.70;74.80;;;;;;4200112;28;20269;-94
2022/03/12 06:00:32;;;;;;;40.97;15.83;;;0.70;73.90;;;;;;4178789;28;20278;-83
2022/03/12 06:02:35;;;;;;;33.73;14.63;;;0.80;74.50;;;;;;4180758;28;20794;-80
2022/03/12 06:04:36;;;;;;;29.87;13.53;;;1.10;74.50;;;;;;4180476;28;20278;-84
2022/03/12 06:06:44;;;;;;;33.40;14.13;;;1.30;73.60;;;;;;4185974;28;20891;-63
2022/03/12 06:08:45;;;;;;;28.97;14.17;;;1.50;72.90;;;;;;4183562;28;20274;-91
2022/03/12 06:10:51;;;;;;;31.00;14.77;;;1.90;72.80;;;;;;4184784;28;20845;-76
2022/03/12 06:12:56;;;;;;;28.90;13.93;;;2.00;71.90;;;;;;4181884;28;20360;-86
2022/03/12 06:14:57;;;;;;;21.20;11.17;;;2.20;70.60;;;;;;4193065;28;20286;-75
2022/03/12 06:16:59;;;;;;;30.07;13.63;;;2.50;70.20;;;;;;4170546;28;20267;-89
2022/03/12 06:19:00;;;;;;;31.70;12.77;;;2.70;68.80;;;;;;4192070;28;20282;-88
2022/03/12 06:21:04;;;;;;;23.97;11.93;;;2.90;68.40;;;;;;4155924;28;20776;-91
2022/03/12 06:23:05;;;;;;;23.27;11.87;;;3.10;68.10;;;;;;4172885;28;20271;-74
2022/03/12 06:25:09;;;;;;;28.07;12.50;;;3.30;66.30;;;;;;4190769;28;20278;-82
2022/03/12 06:27:10;;;;;;;27.53;13.20;;;3.50;66.40;;;;;;4187764;28;20265;-93
2022/03/12 06:29:13;;;;;;;26.87;14.03;;;3.80;65.40;;;;;;4195957;28;20273;-92
2022/03/12 06:31:15;;;;;;;23.30;13.00;;;4.20;63.90;;;;;;4186914;28;20286;-93
2022/03/12 06:33:18;;;;;;;24.00;12.67;;;4.40;63.50;;;;;;4170700;28;20719;-79
2022/03/12 06:35:19;;;;;;;22.47;11.47;;;4.70;63.00;;;;;;4188241;28;20339;-86
2022/03/12 06:37:21;;;;;;;25.10;13.27;;;4.80;61.60;;;;;;4171343;28;20678;-85
2022/03/12 06:39:22;;;;;;;27.60;12.33;;;4.80;62.00;;;;;;4169001;28;20259;-87
2022/03/12 06:41:24;;;;;;;25.43;12.87;;;4.90;61.60;;;;;;4188505;28;20819;-76
2022/03/12 06:43:28;;;;;;;21.83;11.23;;;5.20;60.90;;;;;;4170446;28;20263;-95
2022/03/12 06:45:32;;;;;;;21.70;10.17;;;5.40;60.80;;;;;;4170087;28;20275;-89
2022/03/12 06:47:35;;;;;;;17.93;9.50;;;5.40;59.90;;;;;;4189667;28;20292;-70
2022/03/12 06:49:38;;;;;;;19.20;8.10;;;5.50;59.80;;;;;;4193326;28;20277;-72
2022/03/12 06:51:40;;;;;;;18.20;8.57;;;5.20;59.40;;;;;;4176343;28;20305;-68
2022/03/12 06:53:41;;;;;;;15.93;8.47;;;4.90;59.80;;;;;;4156612;28;20316;-73
2022/03/12 06:55:42;;;;;;;18.00;7.60;;;4.80;59.60;;;;;;4175774;28;20286;-62
2022/03/12 06:57:46;;;;;;;19.13;7.87;;;4.70;60.20;;;;;;4174239;28;20280;-68
2022/03/12 06:59:48;;;;;;;10.93;5.90;;;4.70;60.20;;;;;;4160942;28;20329;-60
2022/03/12 07:01:49;;;;;;;12.50;6.13;;;4.80;60.00;;;;;;4162586;28;20254;-87
2022/03/12 07:03:50;;;;;;;14.60;6.43;;;4.60;59.40;;;;;;4182795;28;20278;-93
2022/03/12 07:05:52;;;;;;;11.20;6.53;;;4.30;60.30;;;;;;4184069;28;20304;-94
2022/03/12 07:07:54;;;;;;;14.70;7.77;;;4.40;60.90;;;;;;4177327;28;20274;-66
2022/03/12 07:09:55;;;;;;;15.27;7.67;;;4.80;60.00;;;;;;4169480;28;20320;-55
2022/03/12 07:11:58;;;;;;;14.60;6.37;;;5.30;59.50;;;;;;4172250;28;20320;-64
2022/03/12 07:13:59;;;;;;;13.13;6.77;;;4.90;58.80;;;;;;4160754;28;20699;-70
2022/03/12 07:16:02;;;;;;;15.47;6.57;;;4.70;59.40;;;;;;4168463;28;20294;-66
2022/03/12 07:18:04;;;;;;;19.87;7.40;;;4.90;59.70;;;;;;4166519;28;20270;-69
2022/03/12 07:20:05;;;;;;;14.90;6.73;;;5.00;59.60;;;;;;4159677;28;20373;-60
2022/03/12 07:22:07;;;;;;;14.03;7.20;;;5.20;59.00;;;;;;4167647;28;20282;-70
2022/03/12 07:24:08;;;;;;;11.70;6.70;;;5.20;58.90;;;;;;4166315;28;20383;-69
2022/03/12 07:26:09;;;;;;;19.80;7.30;;;5.10;58.30;;;;;;4183081;28;20281;-68
2022/03/12 07:28:16;;;;;;;9.80;5.90;;;5.40;58.80;;;;;;4189520;28;20661;-59
2022/03/12 07:30:17;;;;;;;12.13;6.90;;;5.20;58.20;;;;;;4188581;28;20362;-68
2022/03/12 07:32:19;;;;;;;19.80;6.97;;;5.10;59.10;;;;;;4173905;28;20270;-70
2022/03/12 07:34:22;;;;;;;14.60;5.70;;;5.40;58.50;;;;;;4171824;28;20637;-57
2022/03/12 07:36:23;;;;;;;15.03;5.93;;;5.60;58.30;;;;;;4192859;28;20319;-68
2022/03/12 07:38:25;;;;;;;15.43;6.70;;;5.60;57.90;;;;;;4190812;28;20310;-67
2022/03/12 07:40:27;;;;;;;11.73;6.23;;;5.40;58.00;;;;;;4182501;28;20371;-64
2022/03/12 07:42:28;;;;;;;10.47;5.93;;;5.20;57.40;;;;;;4172687;28;20772;-68
2022/03/12 07:44:30;;;;;;;14.07;5.80;;;4.90;57.40;;;;;;4157887;28;20313;-67
2022/03/12 07:46:31;;;;;;;15.03;6.73;;;4.90;58.10;;;;;;4181489;28;20294;-67
2022/03/12 07:48:33;;;;;;;11.03;5.80;;;4.80;57.90;;;;;;4177134;28;20274;-71
2022/03/12 07:50:34;;;;;;;9.63;4.80;;;4.60;57.80;;;;;;4175290;28;20789;-69
2022/03/12 07:52:36;;;;;;;12.33;4.70;;;4.60;58.00;;;;;;4175595;28;20335;-59
2022/03/12 07:54:37;;;;;;;9.87;4.57;;;4.30;57.40;;;;;;4183238;28;20343;-57
2022/03/12 07:56:39;;;;;;;7.90;3.87;;;4.40;57.70;;;;;;4183616;28;20289;-66
2022/03/12 07:58:40;;;;;;;9.37;3.67;;;4.30;57.10;;;;;;4175079;28;20385;-54
2022/03/12 08:00:41;;;;;;;5.33;3.17;;;4.20;56.60;;;;;;4176639;28;20270;-57
2022/03/12 08:02:45;;;;;;;6.60;3.13;;;4.40;56.70;;;;;;4174943;28;20649;-48
2022/03/12 08:04:46;;;;;;;14.57;7.60;;;4.40;56.50;;;;;;4176232;28;20258;-60
2022/03/12 08:06:48;;;;;;;15.10;5.57;;;4.40;56.70;;;;;;4175371;28;20335;-68
2022/03/12 08:08:49;;;;;;;9.03;4.57;;;4.00;56.40;;;;;;4188687;28;21171;-61
2022/03/12 08:13:10;;;;;;;12.40;4.30;;;4.00;57.40;;;;;;4192140;28;20285;-61
2022/03/12 08:15:12;;;;;;;7.23;4.13;;;4.50;57.10;;;;;;4192222;28;20335;-57
2022/03/12 08:17:13;;;;;;;8.33;3.63;;;4.80;56.30;;;;;;4173850;28;20312;-56
2022/03/12 08:19:14;;;;;;;8.47;4.07;;;5.00;55.70;;;;;;4191042;28;21234;-67
2022/03/12 08:21:16;;;;;;;9.37;4.17;;;5.00;56.60;;;;;;4179240;28;20348;-62
2022/03/12 08:25:28;;;;;;;;;;;4.70;53.60;;;;;;4318014;23;20351;-58
2022/03/12 08:27:29;;;;;;;7.63;3.57;;;4.00;53.80;;;;;;4190897;28;19912;-53
2022/03/12 08:29:30;;;;;;;6.57;3.37;;;3.80;55.70;;;;;;4173423;28;20274;-44
2022/03/12 08:33:43;;;;;;;;;;;4.10;56.20;;;;;;4348359;23;20325;-47
2022/03/12 08:35:44;;;;;;;6.60;3.23;;;4.10;55.40;;;;;;4190029;28;19950;-49
2022/03/12 08:37:45;;;;;;;8.07;3.87;;;3.70;55.20;;;;;;4192125;28;20273;-57
2022/03/12 08:39:47;;;;;;;7.63;3.53;;;4.10;55.60;;;;;;4172065;28;20312;-58
2022/03/12 08:41:48;;;;;;;9.17;4.10;;;4.40;55.80;;;;;;4192219;28;20315;-70
2022/03/12 08:43:49;;;;;;;6.70;3.33;;;4.90;55.70;;;;;;4188828;28;20594;-56
2022/03/12 08:45:50;;;;;;;6.97;3.00;;;4.90;54.60;;;;;;4176601;28;21228;-43
2022/03/12 08:47:51;;;;;;;8.07;4.23;;;4.90;54.60;;;;;;4444150;22;20301;-50
2022/03/12 08:49:53;;;;;;;6.83;3.83;;;4.60;54.60;;;;;;4171936;28;20282;-65
2022/03/12 08:51:54;;;;;;;6.27;3.43;;;4.50;54.80;;;;;;4173975;28;20305;-46
2022/03/12 08:53:55;;;;;;;8.27;3.97;;;4.00;54.40;;;;;;4173913;28;20327;-67
2022/03/12 08:55:57;;;;;;;6.73;3.53;;;3.60;55.00;;;;;;4175597;28;20257;-56
2022/03/12 08:57:58;;;;;;;8.67;3.90;;;3.30;55.20;;;;;;4175073;28;20351;-75
2022/03/12 09:00:00;;;;;;;10.23;3.97;;;3.50;55.70;;;;;;4173325;28;20278;-59
2022/03/12 09:02:01;;;;;;;8.67;3.80;;;3.30;55.40;;;;;;4174902;28;20718;-58
2022/03/12 09:04:03;;;;;;;10.50;3.77;;;3.40;55.70;;;;;;4175130;28;20332;-51
2022/03/12 09:06:04;;;;;;;7.90;3.50;;;3.70;55.80;;;;;;4175323;28;20268;-57
2022/03/12 09:08:07;;;;;;;5.83;3.37;;;3.50;55.10;;;;;;4172580;28;20278;-56
2022/03/12 09:10:11;;;;;;;8.30;3.80;;;3.40;55.70;;;;;;4174003;28;20312;-61
2022/03/12 09:12:12;;;;;;;8.10;3.53;;;3.10;55.30;;;;;;4176143;28;20332;-50
2022/03/12 09:14:13;;;;;;;7.60;3.10;;;3.10;55.60;;;;;;4175409;28;20604;-69
2022/03/12 09:16:16;;;;;;;5.90;3.07;;;3.30;55.70;;;;;;4174978;28;20654;-49
2022/03/12 09:18:18;;;;;;;7.90;3.60;;;3.20;55.50;;;;;;4175290;28;20274;-60
2022/03/12 09:20:19;;;;;;;6.67;3.60;;;3.30;55.60;;;;;;4174201;28;20416;-63
2022/03/12 09:25:09;;;;;;;5.73;3.03;;;2.30;56.20;;;;;;4197619;23;20403;-63
2022/03/12 09:27:10;;;;;;;7.50;2.90;;;2.60;56.90;;;;;;4190354;28;20614;-47
2022/03/12 09:29:11;;;;;;;7.20;4.07;;;2.90;56.40;;;;;;4190717;28;20338;-51
2022/03/12 09:31:12;;;;;;;8.63;3.27;;;2.70;55.90;;;;;;4189789;28;20381;-66
2022/03/12 09:33:14;;;;;;;7.33;3.50;;;2.50;56.10;;;;;;4168021;28;20683;-67
2022/03/12 09:35:15;;;;;;;6.90;3.47;;;2.40;56.50;;;;;;4190041;28;20950;-67
2022/03/12 09:37:17;;;;;;;9.43;3.37;;;2.30;56.50;;;;;;4191702;28;20261;-61
2022/03/12 09:39:18;;;;;;;7.73;3.07;;;2.40;57.00;;;;;;4190135;28;20679;-67
2022/03/12 09:41:19;;;;;;;6.13;3.23;;;2.80;57.80;;;;;;4191545;28;20269;-65
2022/03/12 09:43:21;;;;;;;9.07;4.03;;;3.20;57.00;;;;;;4187566;28;20325;-65
2022/03/12 09:45:23;;;;;;;7.90;4.30;;;3.40;56.90;;;;;;4189209;28;20691;-71
2022/03/12 09:47:24;;;;;;;6.97;4.00;;;3.80;56.60;;;;;;4173507;28;20935;-68
2022/03/12 09:49:26;;;;;;;9.17;3.80;;;4.00;56.40;;;;;;4173645;28;20286;-47
2022/03/12 09:51:29;;;;;;;7.97;3.73;;;4.50;56.30;;;;;;4173497;28;20294;-70
2022/03/12 09:53:30;;;;;;;7.13;3.10;;;4.50;54.60;;;;;;4172380;28;20266;-63
2022/03/12 09:55:33;;;;;;;8.27;3.57;;;4.40;55.00;;;;;;4175238;28;20289;-55
2022/03/12 09:57:34;;;;;;;5.97;3.47;;;3.90;55.00;;;;;;4180554;28;20297;-57
2022/03/12 09:59:36;;;;;;;7.53;3.67;;;3.70;55.30;;;;;;4173674;28;20278;-66
2022/03/12 10:01:37;;;;;;;7.53;4.23;;;3.50;55.30;;;;;;4182210;28;20290;-62
2022/03/12 10:03:38;;;;;;;5.50;2.77;;;3.40;55.30;;;;;;4182876;28;20273;-59
2022/03/12 10:05:40;;;;;;;8.20;3.67;;;3.30;55.60;;;;;;4176335;28;20290;-56
2022/03/12 10:07:41;;;;;;;5.57;2.83;;;3.20;55.40;;;;;;4189458;28;20769;-52
2022/03/12 10:09:42;;;;;;;5.00;3.10;;;3.10;55.20;;;;;;4179143;28;20270;-64
2022/03/12 10:11:45;;;;;;;6.87;3.50;;;3.00;56.20;;;;;;4187462;28;20297;-67
2022/03/12 10:13:46;;;;;;;8.80;3.43;;;3.20;55.80;;;;;;4173262;28;20841;-64
2022/03/12 10:15:47;;;;;;;13.13;4.67;;;3.40;55.80;;;;;;4175016;28;20312;-47
2022/03/12 10:17:51;;;;;;;6.43;3.20;;;3.80;56.10;;;;;;4173007;28;20277;-65
2022/03/12 10:19:52;;;;;;;7.27;3.27;;;3.90;55.40;;;;;;4173011;28;20254;-59
2022/03/12 10:21:54;;;;;;;9.23;3.67;;;3.60;54.80;;;;;;4173268;28;20270;-48
2022/03/12 10:23:55;;;;;;;8.10;3.67;;;3.40;55.00;;;;;;4174101;28;20317;-54
2022/03/12 10:25:56;;;;;;;6.97;3.63;;;3.30;55.50;;;;;;4173436;28;20339;-68
2022/03/12 10:27:57;;;;;;;7.03;3.17;;;3.10;55.10;;;;;;4179895;28;20331;-67
2022/03/12 10:29:58;;;;;;;6.27;3.73;;;2.80;54.90;;;;;;4173011;28;20288;-58
2022/03/12 10:32:24;;;;;;;7.63;3.10;;;2.50;55.20;;;;;;4189369;28;20683;-63
2022/03/12 10:34:27;;;;;;;5.83;3.40;;;2.40;55.10;;;;;;4177524;28;20293;-61
2022/03/12 10:36:39;;;;;;;10.17;3.57;;;2.50;56.40;;;;;;4189577;28;20277;-58
2022/03/12 10:38:42;;;;;;;6.90;3.23;;;2.70;56.00;;;;;;4190229;28;20822;-59